createdAt,value
2022-12-18T00:01:07.178Z,20.73
2022-12-18T00:03:35.305Z,18.67
2022-12-18T00:06:02.727Z,17.38
2022-12-18T00:08:30.298Z,17.20
2022-12-18T00:10:59.935Z,18.67
2022-12-18T00:13:28.941Z,16.92
2022-12-18T00:15:56.622Z,18.40
2022-12-18T00:18:24.038Z,19.23
2022-12-18T00:20:51.189Z,16.15
2022-12-18T00:23:18.291Z,16.88
2022-12-18T00:25:45.458Z,16.90
2022-12-18T00:28:12.622Z,16.33
2022-12-18T00:30:40.131Z,17.30
2022-12-18T00:33:07.314Z,17.48
2022-12-18T00:35:34.473Z,18.30
2022-12-18T00:38:01.678Z,17.52
2022-12-18T00:40:28.854Z,17.25
2022-12-18T00:42:58.821Z,17.48
2022-12-18T00:45:30.771Z,16.30
2022-12-18T00:47:58.596Z,17.55
2022-12-18T00:50:26.932Z,16.67
2022-12-18T00:52:54.150Z,16.83
2022-12-18T00:55:21.259Z,18.73
2022-12-18T00:57:48.373Z,17.35
2022-12-18T01:00:16.388Z,17.63
2022-12-18T01:02:43.826Z,16.63
2022-12-18T01:05:12.164Z,15.88
2022-12-18T01:07:39.625Z,16.77
2022-12-18T01:10:08.045Z,16.15
2022-12-18T01:12:35.717Z,19.20
2022-12-18T01:15:02.992Z,16.58
2022-12-18T01:17:30.156Z,16.63
2022-12-18T01:19:57.353Z,16.75
2022-12-18T01:22:24.508Z,16.23
2022-12-18T01:24:51.771Z,16.02
2022-12-18T01:27:19.061Z,15.35
2022-12-18T01:29:46.231Z,15.48
2022-12-18T01:32:14.454Z,16.75
2022-12-18T01:34:41.698Z,15.82
2022-12-18T01:37:09.056Z,15.88
2022-12-18T01:39:36.234Z,15.73
2022-12-18T01:42:10.945Z,15.98
2022-12-18T01:44:56.421Z,15.25
2022-12-18T01:47:25.923Z,14.95
2022-12-18T01:49:53.550Z,15.75
2022-12-18T01:52:21.696Z,14.88
2022-12-18T01:54:50.482Z,15.68
2022-12-18T01:57:17.884Z,16.00
2022-12-18T01:59:47.031Z,14.80
2022-12-18T02:02:14.525Z,14.98
2022-12-18T02:04:46.322Z,15.90
2022-12-18T02:07:36.669Z,15.40
2022-12-18T02:10:09.420Z,17.00
2022-12-18T02:12:58.383Z,15.20
2022-12-18T02:15:34.870Z,14.68
2022-12-18T02:18:11.492Z,15.30
2022-12-18T02:20:44.393Z,14.95
2022-12-18T02:23:19.339Z,15.02
2022-12-18T02:25:52.296Z,15.80
2022-12-18T02:28:21.945Z,15.40
2022-12-18T02:30:50.859Z,13.93
2022-12-18T02:33:18.743Z,15.00
2022-12-18T02:35:46.571Z,14.63
2022-12-18T02:38:14.014Z,14.13
2022-12-18T02:40:42.469Z,13.55
2022-12-18T02:43:10.783Z,14.73
2022-12-18T02:45:38.981Z,15.07
2022-12-18T02:48:06.394Z,13.70
2022-12-18T02:50:39.805Z,14.32
2022-12-18T02:53:23.874Z,14.60
2022-12-18T02:55:54.660Z,13.15
2022-12-18T02:58:36.267Z,14.50
2022-12-18T03:01:08.019Z,14.13
2022-12-18T03:03:39.534Z,14.63
2022-12-18T03:06:06.894Z,13.38
2022-12-18T03:08:37.446Z,14.18
2022-12-18T03:11:14.987Z,13.90
2022-12-18T03:13:44.987Z,15.07
2022-12-18T03:16:14.934Z,13.57
2022-12-18T03:18:53.556Z,13.60
2022-12-18T03:21:24.770Z,12.82
2022-12-18T03:23:53.090Z,13.25
2022-12-18T03:26:22.461Z,13.43
2022-12-18T03:28:58.390Z,14.18
2022-12-18T03:33:57.151Z,13.93
2022-12-18T03:36:24.731Z,13.93
2022-12-18T03:38:52.498Z,12.68
2022-12-18T03:41:24.353Z,12.55
2022-12-18T03:43:51.462Z,12.77
2022-12-18T03:46:23.555Z,12.82
2022-12-18T03:48:54.417Z,13.73
2022-12-18T03:51:30.687Z,13.23
2022-12-18T03:54:00.161Z,13.35
2022-12-18T03:56:30.486Z,12.95
2022-12-18T03:58:59.408Z,13.18
2022-12-18T04:01:35.209Z,13.93
2022-12-18T04:06:30.743Z,13.75
2022-12-18T04:09:02.088Z,13.07
2022-12-18T04:11:29.398Z,14.27
2022-12-18T04:14:00.798Z,13.35
2022-12-18T04:16:30.208Z,13.73
2022-12-18T04:18:57.407Z,11.57
2022-12-18T04:21:24.707Z,12.35
2022-12-18T04:23:51.865Z,12.07
2022-12-18T04:26:19.023Z,13.15
2022-12-18T04:28:46.290Z,12.70
2022-12-18T04:31:13.542Z,12.50
2022-12-18T04:33:41.149Z,13.00
2022-12-18T04:36:08.736Z,13.15
2022-12-18T04:38:36.001Z,13.60
2022-12-18T04:41:03.114Z,12.40
2022-12-18T04:43:30.319Z,12.48
2022-12-18T04:46:07.263Z,11.80
2022-12-18T04:48:34.980Z,13.05
2022-12-18T04:51:02.398Z,11.95
2022-12-18T04:53:29.592Z,12.55
2022-12-18T04:56:13.615Z,11.48
2022-12-18T04:58:41.386Z,12.18
2022-12-18T05:01:08.824Z,12.25
2022-12-18T05:03:38.269Z,12.85
2022-12-18T05:06:06.591Z,12.02
2022-12-18T05:08:34.350Z,12.07
2022-12-18T05:11:02.832Z,12.13
2022-12-18T05:13:30.097Z,12.63
2022-12-18T05:15:57.595Z,13.93
2022-12-18T05:18:25.506Z,12.63
2022-12-18T05:20:53.325Z,12.05
2022-12-18T05:23:20.853Z,12.32
2022-12-18T05:25:58.297Z,11.57
2022-12-18T05:28:26.596Z,11.90
2022-12-18T05:30:56.644Z,11.68
2022-12-18T05:33:24.689Z,11.50
2022-12-18T05:35:56.198Z,10.60
2022-12-18T05:38:23.896Z,12.77
2022-12-18T05:40:51.717Z,11.52
2022-12-18T05:43:21.527Z,12.05
2022-12-18T05:45:49.357Z,11.30
2022-12-18T05:48:16.936Z,11.88
2022-12-18T05:50:46.421Z,11.90
2022-12-18T05:53:13.828Z,11.25
2022-12-18T05:55:42.038Z,12.30
2022-12-18T05:58:10.062Z,11.98
2022-12-18T06:00:40.806Z,11.60
2022-12-18T06:03:09.004Z,11.48
2022-12-18T06:05:38.120Z,11.73
2022-12-18T06:08:05.374Z,11.15
2022-12-18T06:10:33.265Z,11.63
2022-12-18T06:13:00.534Z,11.43
2022-12-18T06:15:30.800Z,11.50
2022-12-18T06:17:57.981Z,11.43
2022-12-18T06:20:29.121Z,10.98
2022-12-18T06:22:59.223Z,12.32
2022-12-18T06:25:26.613Z,14.30
2022-12-18T06:27:53.762Z,10.93
2022-12-18T06:30:21.043Z,11.80
2022-12-18T06:32:53.192Z,11.23
2022-12-18T06:35:23.654Z,11.70
2022-12-18T06:37:51.125Z,12.35
2022-12-18T06:40:18.447Z,10.95
2022-12-18T06:42:45.589Z,11.55
2022-12-18T06:45:12.851Z,11.25
2022-12-18T06:47:40.028Z,11.40
2022-12-18T06:50:07.453Z,11.70
2022-12-18T06:52:35.122Z,11.30
2022-12-18T06:55:02.401Z,10.82
2022-12-18T06:57:29.568Z,11.10
2022-12-18T06:59:56.786Z,12.10
2022-12-18T07:02:24.102Z,10.63
2022-12-18T07:04:51.260Z,10.70
2022-12-18T07:07:18.705Z,10.30
2022-12-18T07:09:45.877Z,9.95
2022-12-18T07:12:13.031Z,12.60
2022-12-18T07:14:40.333Z,11.07
2022-12-18T07:17:07.548Z,11.40
2022-12-18T07:19:34.885Z,10.52
2022-12-18T07:22:02.228Z,12.52
2022-12-18T07:24:30.100Z,10.70
2022-12-18T07:26:57.237Z,10.85
2022-12-18T07:29:24.718Z,10.65
2022-12-18T07:31:51.925Z,13.32
2022-12-18T07:34:19.096Z,11.55
2022-12-18T07:36:46.442Z,11.45
2022-12-18T07:39:13.715Z,12.75
2022-12-18T07:41:47.235Z,13.00
2022-12-18T07:44:14.859Z,13.43
2022-12-18T07:46:42.013Z,13.68
2022-12-18T07:49:09.196Z,14.95
2022-12-18T07:51:36.487Z,14.73
2022-12-18T07:54:03.710Z,15.57
2022-12-18T07:56:31.650Z,15.48
2022-12-18T07:58:59.930Z,15.95
2022-12-18T08:01:27.657Z,20.85
2022-12-18T08:03:55.011Z,16.33
2022-12-18T08:06:23.318Z,16.15
2022-12-18T08:08:52.597Z,17.70
2022-12-18T08:11:19.754Z,17.45
2022-12-18T08:13:47.040Z,16.13
2022-12-18T08:16:14.215Z,20.48
2022-12-18T08:18:41.381Z,15.68
2022-12-18T08:21:12.239Z,16.30
2022-12-18T08:23:43.077Z,15.63
2022-12-18T08:26:11.500Z,15.73
2022-12-18T08:28:38.858Z,22.15
2022-12-18T08:31:06.166Z,15.85
2022-12-18T08:33:33.623Z,23.58
2022-12-18T08:36:01.676Z,22.23
2022-12-18T08:38:28.967Z,23.85
2022-12-18T08:41:01.211Z,20.45
2022-12-18T08:43:47.377Z,19.95
2022-12-18T08:46:14.673Z,15.85
2022-12-18T08:48:41.895Z,16.75
2022-12-18T08:51:10.739Z,21.42
2022-12-18T08:53:39.137Z,16.45
2022-12-18T08:56:07.105Z,19.52
2022-12-18T08:58:34.267Z,18.55
2022-12-18T09:01:11.115Z,18.50
2022-12-18T09:03:39.771Z,18.83
2022-12-18T09:06:07.614Z,15.93
2022-12-18T09:08:34.941Z,19.27
2022-12-18T09:11:02.182Z,14.77
2022-12-18T09:13:29.606Z,16.00
2022-12-18T09:15:56.784Z,17.50
2022-12-18T09:18:25.207Z,14.43
2022-12-18T09:20:53.846Z,16.27
2022-12-18T09:23:22.920Z,17.20
2022-12-18T09:25:50.479Z,14.63
2022-12-18T09:28:19.293Z,13.88
2022-12-18T09:30:48.212Z,16.48
2022-12-18T09:33:15.431Z,13.52
2022-12-18T09:35:43.896Z,16.42
2022-12-18T09:38:19.015Z,13.77
2022-12-18T09:40:46.198Z,14.02
2022-12-18T09:43:20.602Z,15.90
2022-12-18T09:45:49.903Z,17.13
2022-12-18T09:48:25.477Z,13.40
2022-12-18T09:50:53.930Z,13.75
2022-12-18T09:53:22.475Z,15.63
2022-12-18T09:55:50.102Z,14.98
2022-12-18T09:58:27.768Z,18.10
2022-12-18T10:00:55.396Z,13.55
2022-12-18T10:03:22.915Z,13.45
2022-12-18T10:06:02.035Z,14.07
2022-12-18T10:08:41.527Z,14.07
2022-12-18T10:11:22.988Z,12.63
2022-12-18T10:14:05.651Z,13.55
2022-12-18T10:16:38.231Z,14.13
2022-12-18T10:19:11.576Z,12.45
2022-12-18T10:21:50.641Z,12.10
2022-12-18T10:24:26.724Z,12.05
2022-12-18T10:26:54.679Z,12.35
2022-12-18T10:29:21.812Z,11.98
2022-12-18T10:31:48.926Z,11.98
2022-12-18T10:34:16.213Z,11.38
2022-12-18T10:36:44.011Z,12.52
2022-12-18T10:39:23.332Z,12.52
2022-12-18T10:41:52.751Z,11.90
2022-12-18T10:44:23.974Z,11.65
2022-12-18T10:46:52.788Z,11.60
2022-12-18T10:49:21.678Z,13.57
2022-12-18T10:51:49.148Z,11.27
2022-12-18T10:54:17.747Z,13.23
2022-12-18T10:56:45.325Z,11.95
2022-12-18T10:59:16.727Z,12.98
2022-12-18T11:01:47.123Z,11.82
2022-12-18T11:04:17.381Z,11.43
2022-12-18T11:06:55.763Z,11.13
2022-12-18T11:09:24.287Z,11.52
2022-12-18T11:11:53.424Z,12.75
2022-12-18T11:14:27.867Z,12.18
2022-12-18T11:17:25.001Z,13.38
2022-12-18T11:19:46.516Z,11.43
2022-12-18T11:22:33.164Z,12.85
2022-12-18T11:27:53.315Z,16.30
2022-12-18T11:30:51.738Z,16.55
2022-12-18T11:33:28.939Z,13.77
2022-12-18T11:36:03.632Z,11.45
2022-12-18T11:38:42.097Z,11.13
2022-12-18T11:41:50.156Z,11.02
2022-12-18T11:44:21.670Z,14.68
2022-12-18T11:46:51.648Z,23.33
2022-12-18T11:49:24.295Z,16.33
2022-12-18T11:52:02.126Z,12.50
2022-12-18T11:54:29.301Z,13.35
2022-12-18T11:57:03.356Z,15.30
2022-12-18T11:59:31.407Z,14.98
2022-12-18T12:02:21.436Z,13.88
2022-12-18T12:05:07.287Z,14.27
2022-12-18T12:07:56.368Z,17.05
2022-12-18T12:10:25.511Z,26.40
2022-12-18T12:12:58.581Z,43.80
2022-12-18T12:15:38.782Z,43.13
2022-12-18T12:18:11.058Z,46.22
2022-12-18T12:20:48.322Z,37.83
2022-12-18T12:23:30.559Z,55.97
2022-12-18T12:26:01.193Z,66.28
2022-12-18T12:28:28.376Z,55.92
2022-12-18T12:30:58.562Z,60.28
2022-12-18T12:33:28.854Z,50.70
2022-12-18T12:36:05.213Z,52.08
2022-12-18T12:38:37.147Z,54.33
2022-12-18T12:41:06.135Z,49.28
2022-12-18T12:43:50.502Z,50.70
2022-12-18T12:46:20.825Z,48.95
2022-12-18T12:48:51.326Z,44.88
2022-12-18T12:51:18.464Z,53.08
2022-12-18T12:53:46.732Z,49.67
2022-12-18T12:56:15.562Z,46.92
2022-12-18T12:59:09.486Z,48.22
2022-12-18T13:01:45.430Z,51.88
2022-12-18T13:06:46.729Z,64.05
2022-12-18T13:09:14.576Z,58.05
2022-12-18T13:12:02.200Z,55.83
2022-12-18T13:14:39.659Z,45.45
2022-12-18T13:17:16.067Z,62.13
2022-12-18T13:19:43.953Z,53.45
2022-12-18T13:22:36.136Z,52.75
2022-12-18T13:25:03.687Z,48.92
2022-12-18T13:27:40.135Z,51.35
2022-12-18T13:30:26.615Z,45.90
2022-12-18T13:33:13.753Z,44.38
2022-12-18T13:35:42.197Z,43.33
2022-12-18T13:38:26.000Z,41.03
2022-12-18T13:40:53.149Z,38.70
2022-12-18T13:43:23.439Z,38.70
2022-12-18T13:46:29.418Z,39.42
2022-12-18T13:49:02.112Z,39.00
2022-12-18T13:51:29.790Z,37.28
2022-12-18T13:53:59.882Z,35.70
2022-12-18T13:56:31.610Z,33.90
2022-12-18T13:59:16.745Z,35.33
2022-12-18T14:01:53.348Z,35.00
2022-12-18T14:04:31.149Z,35.53
2022-12-18T14:07:30.822Z,39.38
2022-12-18T14:10:18.887Z,34.53
2022-12-18T14:12:57.654Z,36.45
2022-12-18T14:15:29.084Z,32.88
2022-12-18T14:18:01.052Z,31.05
2022-12-18T14:20:29.959Z,30.83
2022-12-18T14:22:57.756Z,31.05
2022-12-18T14:25:26.972Z,32.20
2022-12-18T14:27:55.393Z,28.83
2022-12-18T14:30:26.007Z,31.50
2022-12-18T14:33:06.586Z,29.55
2022-12-18T14:35:34.962Z,33.88
2022-12-18T14:38:21.169Z,27.08
2022-12-18T14:40:48.404Z,27.70
2022-12-18T14:43:15.708Z,31.50
2022-12-18T14:45:44.509Z,27.50
2022-12-18T14:48:23.950Z,25.90
2022-12-18T14:51:20.858Z,26.42
2022-12-18T14:53:54.401Z,30.50
2022-12-18T14:56:24.032Z,27.10
2022-12-18T14:59:01.628Z,25.13
2022-12-18T15:01:28.937Z,25.00
2022-12-18T15:03:56.910Z,25.13
2022-12-18T15:06:53.210Z,26.45
2022-12-18T15:09:24.497Z,22.55
2022-12-18T15:11:56.963Z,25.60
2022-12-18T15:14:33.372Z,24.25
2022-12-18T15:17:02.120Z,23.15
2022-12-18T15:19:35.090Z,22.95
2022-12-18T15:22:06.383Z,23.80
2022-12-18T15:24:34.564Z,22.58
2022-12-18T15:27:02.195Z,22.85
2022-12-18T15:29:29.634Z,20.58
2022-12-18T15:32:03.855Z,21.27
2022-12-18T15:34:31.408Z,21.00
2022-12-18T15:36:58.769Z,21.55
2022-12-18T15:39:26.045Z,21.77
2022-12-18T15:42:11.725Z,19.55
2022-12-18T15:44:39.055Z,22.55
2022-12-18T15:47:11.920Z,21.40
2022-12-18T15:49:39.136Z,21.83
2022-12-18T15:52:09.204Z,20.48
2022-12-18T15:54:59.430Z,19.75
2022-12-18T15:57:27.355Z,19.63
2022-12-18T15:59:59.301Z,19.63
2022-12-18T16:02:27.226Z,20.63
2022-12-18T16:04:55.116Z,18.20
2022-12-18T16:07:25.182Z,22.25
2022-12-18T16:09:55.855Z,18.70
2022-12-18T16:12:26.502Z,20.52
2022-12-18T16:14:53.671Z,20.65
2022-12-18T16:17:20.884Z,17.88
2022-12-18T16:19:48.169Z,18.35
2022-12-18T16:22:28.905Z,18.25
2022-12-18T16:24:56.515Z,19.40
2022-12-18T16:27:24.086Z,17.27
2022-12-18T16:29:51.591Z,19.88
2022-12-18T16:32:20.395Z,17.88
2022-12-18T16:34:47.943Z,18.02
2022-12-18T16:37:15.911Z,17.75
2022-12-18T16:39:43.314Z,17.90
2022-12-18T16:42:28.580Z,18.52
2022-12-18T16:44:55.719Z,17.95
2022-12-18T16:47:22.938Z,18.70
2022-12-18T16:49:52.808Z,16.27
2022-12-18T16:52:20.493Z,20.25
2022-12-18T16:54:47.688Z,16.55
2022-12-18T16:57:15.999Z,17.00
2022-12-18T16:59:43.154Z,17.27
2022-12-18T17:02:21.840Z,16.08
2022-12-18T17:04:51.237Z,17.17
2022-12-18T17:07:18.396Z,15.82
2022-12-18T17:09:45.510Z,16.45
2022-12-18T17:12:13.285Z,19.55
2022-12-18T17:14:40.544Z,18.55
2022-12-18T17:17:20.891Z,15.80
2022-12-18T17:19:48.847Z,17.48
2022-12-18T17:22:16.008Z,15.20
2022-12-18T17:24:43.171Z,14.43
2022-12-18T17:27:10.366Z,14.32
2022-12-18T17:29:40.097Z,16.63
2022-12-18T17:32:12.489Z,15.47
2022-12-18T17:34:39.686Z,14.70
2022-12-18T17:37:06.885Z,17.85
2022-12-18T17:39:36.302Z,16.83
2022-12-18T17:42:03.879Z,17.25
2022-12-18T17:44:34.221Z,15.93
2022-12-18T17:47:01.547Z,18.05
2022-12-18T17:49:28.750Z,17.00
2022-12-18T17:51:55.948Z,17.52
2022-12-18T17:54:23.086Z,16.73
2022-12-18T17:56:50.317Z,16.42
2022-12-18T17:59:17.640Z,17.00
2022-12-18T18:01:45.696Z,19.90
2022-12-18T18:04:13.424Z,17.15
2022-12-18T18:06:40.934Z,19.13
2022-12-18T18:09:10.323Z,14.10
2022-12-18T18:12:04.971Z,16.02
2022-12-18T18:14:33.041Z,17.83
2022-12-18T18:17:04.846Z,18.45
2022-12-18T18:19:32.880Z,14.70
2022-12-18T18:22:00.067Z,14.65
2022-12-18T18:24:27.534Z,15.00
2022-12-18T18:26:54.746Z,15.23
2022-12-18T18:29:23.599Z,13.85
2022-12-18T18:31:53.077Z,15.15
2022-12-18T18:34:25.229Z,14.95
2022-12-18T18:36:52.693Z,16.08
2022-12-18T18:39:20.428Z,13.93
2022-12-18T18:41:48.665Z,18.63
2022-12-18T18:44:16.741Z,17.75
2022-12-18T18:46:43.993Z,13.02
2022-12-18T18:49:11.848Z,12.60
2022-12-18T18:51:39.028Z,13.85
2022-12-18T18:54:06.247Z,16.05
2022-12-18T18:56:56.371Z,15.15
2022-12-18T18:59:22.346Z,23.35
2022-12-18T19:04:25.238Z,14.90
2022-12-18T19:06:52.877Z,18.38
2022-12-18T19:09:19.998Z,12.80
2022-12-18T19:12:06.158Z,12.80
2022-12-18T19:14:33.407Z,13.32
2022-12-18T19:17:00.590Z,15.57
2022-12-18T19:19:28.412Z,16.33
2022-12-18T19:21:55.745Z,14.48
2022-12-18T19:24:22.942Z,14.80
2022-12-18T19:26:51.471Z,15.63
2022-12-18T19:29:19.356Z,14.13
2022-12-18T19:31:46.521Z,16.77
2022-12-18T19:34:14.182Z,13.32
2022-12-18T19:36:42.084Z,14.13
2022-12-18T19:39:11.169Z,15.02
2022-12-18T19:41:38.583Z,14.35
2022-12-18T19:44:08.205Z,14.32
2022-12-18T19:46:36.180Z,16.27
2022-12-18T19:49:07.990Z,16.77
2022-12-18T19:51:35.952Z,17.00
2022-12-18T19:54:03.380Z,16.52
2022-12-18T19:56:31.779Z,16.38
2022-12-18T19:59:01.093Z,12.75
2022-12-18T20:01:29.044Z,13.90
2022-12-18T20:03:57.044Z,16.38
2022-12-18T20:06:25.518Z,17.08
2022-12-18T20:08:54.009Z,12.50
2022-12-18T20:11:29.552Z,15.20
2022-12-18T20:13:58.137Z,16.08
2022-12-18T20:16:25.306Z,14.73
2022-12-18T20:18:52.765Z,15.60
2022-12-18T20:21:20.148Z,16.45
2022-12-18T20:23:47.358Z,18.92
2022-12-18T20:26:16.287Z,24.52
2022-12-18T20:28:43.454Z,19.75
2022-12-18T20:31:13.528Z,12.45
2022-12-18T20:33:41.784Z,17.05
2022-12-18T20:36:11.518Z,16.80
2022-12-18T20:38:39.575Z,19.30
2022-12-18T20:41:12.280Z,13.93
2022-12-18T20:43:40.353Z,18.38
2022-12-18T20:46:09.095Z,13.95
2022-12-18T20:48:36.591Z,19.48
2022-12-18T20:51:06.916Z,16.50
2022-12-18T20:53:34.557Z,14.98
2022-12-18T20:56:02.416Z,16.23
2022-12-18T20:58:29.580Z,16.70
2022-12-18T21:01:03.784Z,16.25
2022-12-18T21:03:31.135Z,15.23
2022-12-18T21:05:58.342Z,14.55
2022-12-18T21:08:25.484Z,14.93
2022-12-18T21:10:53.260Z,15.65
2022-12-18T21:13:22.730Z,14.07
2022-12-18T21:15:50.121Z,17.17
2022-12-18T21:18:17.393Z,15.50
2022-12-18T21:20:44.943Z,14.55
2022-12-18T21:23:16.512Z,14.35
2022-12-18T21:25:43.993Z,13.68
2022-12-18T21:28:12.771Z,16.30
2022-12-18T21:30:40.242Z,14.30
2022-12-18T21:33:07.460Z,15.40
2022-12-18T21:35:34.647Z,15.05
2022-12-18T21:38:03.872Z,18.30
2022-12-18T21:40:33.016Z,17.50
2022-12-18T21:43:19.186Z,16.35
2022-12-18T21:45:46.441Z,14.40
2022-12-18T21:48:13.613Z,14.15
2022-12-18T21:50:40.727Z,15.60
2022-12-18T21:53:07.845Z,15.88
2022-12-18T21:55:35.233Z,15.05
2022-12-18T21:58:02.331Z,13.90
2022-12-18T22:00:29.487Z,17.38
2022-12-18T22:03:13.352Z,13.93
2022-12-18T22:05:43.773Z,14.65
2022-12-18T22:08:11.280Z,14.98
2022-12-18T22:10:38.844Z,14.27
2022-12-18T22:13:06.891Z,13.48
2022-12-18T22:15:34.293Z,15.68
2022-12-18T22:18:01.470Z,13.43
2022-12-18T22:20:29.514Z,16.77
2022-12-18T22:22:57.189Z,12.75
2022-12-18T22:25:24.370Z,13.43
2022-12-18T22:28:10.356Z,15.48
2022-12-18T22:30:37.824Z,13.10
2022-12-18T22:33:04.966Z,13.27
2022-12-18T22:35:34.470Z,13.00
2022-12-18T22:38:02.210Z,16.20
2022-12-18T22:40:29.634Z,12.40
2022-12-18T22:42:56.898Z,11.50
2022-12-18T22:45:24.702Z,12.80
2022-12-18T22:47:51.901Z,12.43
2022-12-18T22:50:19.075Z,12.43
2022-12-18T22:52:46.220Z,11.38
2022-12-18T22:55:13.374Z,12.63
2022-12-18T22:57:40.746Z,12.52
2022-12-18T23:00:13.956Z,12.57
2022-12-18T23:02:41.239Z,11.10
2022-12-18T23:05:08.591Z,12.95
2022-12-18T23:07:35.799Z,13.73
2022-12-18T23:10:02.912Z,13.55
2022-12-18T23:12:30.156Z,11.95
2022-12-18T23:14:57.397Z,11.48
2022-12-18T23:17:24.655Z,11.63
2022-12-18T23:19:51.859Z,10.95
2022-12-18T23:22:19.165Z,11.77
2022-12-18T23:24:47.163Z,11.52
2022-12-18T23:27:14.347Z,11.10
2022-12-18T23:29:42.772Z,13.52
2022-12-18T23:32:12.367Z,10.88
2022-12-18T23:34:39.526Z,11.65
2022-12-18T23:37:06.680Z,11.93
2022-12-18T23:39:33.798Z,10.70
2022-12-18T23:42:01.535Z,9.73
2022-12-18T23:44:28.907Z,10.23
2022-12-18T23:46:56.165Z,10.27
2022-12-18T23:49:23.561Z,10.13
2022-12-18T23:51:50.853Z,9.77
2022-12-18T23:54:18.942Z,10.60
2022-12-18T23:56:49.796Z,10.68
2022-12-18T23:59:19.340Z,9.82
